• Join FlightAware (Why Join?)
  • Login
  • US Flag 
 
06:05AM EST


 

Airport Tracker/Info


-or-


 

Live Flight TrackerFlight Track Log ✈ SWA16 ✈ 11-Jun-2014 ✈ KMDW - KCMH

Flight Track Log - Related Links

Times and Time Zones

All times are in EDT time to prevent confusion due to time zone crossing. See the SWA16 flight status page for this flight to view local times or setup timezone preferences in your user account.

Time Position Orientation Groundspeed Altitude Reporting Facility
EDT Latitude Longitude Course Direction KTS MPH feet Rate Location/Type
05:52PM 41.8167 -87.7500 90° East 213 245 2,500  Level Chicago TRACON
05:53PM 41.8167 -87.6667 90° East 250 288 3,900 2,400 Climbing Chicago TRACON
05:55PM 41.7881 -87.5408 107° East 277 319 7,900 2,880 Climbing Chicago Center
05:57PM 41.7714 -87.3078 95° East 318 366 13,400 2,700 Climbing Chicago Center
05:58PM 41.7500 -86.9969 90° East  Level FlightAware Approximate
05:58PM 41.7683 -87.1708 92° East 364 419 16,400  Level Chicago Center
05:59PM 41.7675 -87.0361 90° East 370 426 20,100 2,580 Climbing Chicago Center
06:00PM 41.7306 -86.9086 111° Southeast 375 432 21,800 1,380 Climbing Chicago Center
06:01PM 41.6750 -86.7789 120° Southeast 395 455 23,000 540 Climbing Chicago Center
06:02PM 41.6053 -86.6392 124° Southeast 409 471 23,000  Level Chicago Center
06:03PM 41.5297 -86.5272 132° Southeast 410 472 23,000  Level Chicago Center
06:04PM 41.4503 -86.4150 133° Southeast 414 476 23,000  Level Chicago Center
06:05PM 41.3800 -86.2569 121° Southeast 414 476 23,000  Level Chicago Center
06:06PM 41.3292 -86.1197 116° Southeast 415 478 23,000  Level Chicago Center
06:07PM 41.2792 -85.9833 116° Southeast 414 476 23,000  Level Chicago Center
06:08PM 41.2281 -85.8472 116° Southeast 414 476 23,000  Level Chicago Center
06:09PM 41.1775 -85.7119 116° Southeast 413 475 23,000 -660 Level Chicago Center
06:10PM 41.1156 -85.5483 117° Southeast 416 479 21,700 -1,620 Descending Chicago Center
06:11PM 41.0669 -85.4175 116° Southeast 405 466 19,700 -1,320 Descending Chicago Center
06:12PM 41.0183 -85.2914 117° Southeast 388 447 19,000 -360 Descending Chicago Center
06:13PM 40.9714 -85.1653 116° Southeast 388 447 19,000  Level Chicago Center
06:14PM 40.9331 -85.0344 111° Southeast 386 444 19,000  Level Chicago Center
06:15PM 40.8858 -84.8808 112° Southeast 384 442 19,000  Level Chicago Center
06:16PM 40.8467 -84.7528 112° Southeast 381 438 19,000  Level Chicago Center
06:17PM 40.8067 -84.6242 112° Southeast 381 438 19,000  Level Chicago Center
06:18PM 40.7864 -84.5606 113° Southeast 381 438 19,000  Level Indianapolis Center
06:19PM 40.7378 -84.4050 112° Southeast 382 440 19,000  Level Indianapolis Center
06:20PM 40.6969 -84.2750 112° Southeast 382 440 19,000  Level Indianapolis Center
06:21PM 40.6561 -84.1453 112° Southeast 382 440 19,000  Level Indianapolis Center
06:22PM 40.6150 -84.0158 113° Southeast 382 440 19,000 -600 Level Indianapolis Center
06:23PM 40.5744 -83.8889 113° Southeast 381 438 17,800 -1,380 Descending Indianapolis Center
06:23PM 40.5614 -83.8489 113° Southeast 374 430 17,300 -1,800 Descending Indianapolis Center
06:24PM 40.5356 -83.7644 112° Southeast 374 430 16,000 -1,800 Descending Indianapolis Center
06:24PM 40.5231 -83.7292 115° Southeast 363 418 15,500 -1,800 Descending Indianapolis Center
06:25PM 40.4972 -83.6439 112° Southeast 363 418 14,200 -1,980 Descending Indianapolis Center
06:25PM 40.4814 -83.6008 116° Southeast 352 405 13,500 -2,340 Descending Indianapolis Center
06:26PM 40.4422 -83.5175 122° Southeast 338 389 11,800 -1,920 Descending Indianapolis Center
06:26PM 40.4222 -83.4972 142° Southeast 332 382 11,400 -1,260 Descending Indianapolis Center
06:27PM 40.3747 -83.4397 137° Southeast 326 375 10,500 -1,140 Descending Indianapolis Center
06:28PM 40.3561 -83.4228 145° Southeast 311 358 10,300 -1,080 Descending Indianapolis Center
06:28PM 40.3131 -83.3686 136° Southeast 306 352 9,400 -1,080 Descending Indianapolis Center
06:29PM 40.2572 -83.3014 137° Southeast 283 326 8,400 -1,200 Descending Indianapolis Center
06:30PM 40.1981 -83.2317 138° Southeast 252 290 7,000 -1,320 Descending Indianapolis Center
06:31PM 40.1475 -83.1822 143° Southeast 257 296 5,700 -1,440 Descending Indianapolis Center
06:32PM 40.1292 -83.1631 141° Southeast 256 295 5,300 -1,200 Descending Indianapolis Center
06:32PM 40.0922 -83.1256 142° Southeast 257 296 4,500 -1,260 Descending Indianapolis Center
06:33PM 40.0697 -83.1039 144° Southeast 248 285 3,900 -1,500 Descending Indianapolis Center
06:33PM 40.0286 -83.0625 142° Southeast 248 285 3,000 -840 Descending Indianapolis Center
06:34PM 40.0142 -83.0483 143° Southeast 210 242 3,000 -540 Level Indianapolis Center
06:34PM 39.9992 -83.0108 118° Southeast 219 252 2,500 -900 Descending Indianapolis Center
06:35PM 39.9981 -82.9967 96° East 165 190 2,200 -1,020 Descending Indianapolis Center
06:36PM 39.9961 -82.9539 93° East 179 206 1,500 -840 Descending Indianapolis Center
06:36PM 39.9950 -82.9417 97° East 138 159 1,400 -420 Descending Indianapolis Center
06:37PM 39.9919 -82.8947 95° East 164 189 1,100 -360 Descending Indianapolis Center
06:39PM 39.9833 -82.8833 125° Southeast  Level FlightAware Approximate
06:46PM 39.9969 -82.8922 334° Northwest  Level Estimated
06:47PM 39.9969 -82.8922 125° Southeast  Level Estimated
06:48PM 39.9969 -82.8922 North  Level Estimated
06:49PM 39.9969 -82.8922 125° Southeast  Level Estimated
06:50PM 39.9969 -82.8922 North  Level Estimated
06:51PM 39.9969 -82.8922 125° Southeast  Level Estimated
06:52PM 39.9969 -82.8922 North  Level Estimated